createdAt,value
2019-03-25T00:01:15.356Z,5.50
2019-03-25T00:03:47.701Z,5.50
2019-03-25T00:06:20.964Z,5.60
2019-03-25T00:09:04.550Z,5.50
2019-03-25T00:11:26.632Z,5.50
2019-03-25T00:13:58.996Z,5.50
2019-03-25T00:16:30.435Z,5.50
2019-03-25T00:19:02.045Z,5.50
2019-03-25T00:21:33.621Z,5.40
2019-03-25T00:24:05.252Z,5.40
2019-03-25T00:26:36.789Z,5.30
2019-03-25T00:29:08.407Z,5.20
2019-03-25T00:31:40.005Z,5.30
2019-03-25T00:34:11.917Z,5.40
2019-03-25T00:36:43.813Z,5.40
2019-03-25T00:39:15.402Z,5.40
2019-03-25T00:41:47.229Z,5.40
2019-03-25T00:44:19.829Z,5.40
2019-03-25T00:46:51.727Z,5.30
2019-03-25T00:49:23.216Z,5.40
2019-03-25T00:51:54.771Z,5.50
2019-03-25T00:54:26.701Z,5.40
2019-03-25T00:56:58.253Z,5.50
2019-03-25T00:59:29.834Z,5.50
2019-03-25T01:02:01.338Z,5.50
2019-03-25T01:04:34.443Z,5.60
2019-03-25T01:07:05.957Z,5.60
2019-03-25T01:09:48.203Z,5.50
2019-03-25T01:12:19.683Z,5.60
2019-03-25T01:14:51.212Z,5.60
2019-03-25T01:17:23.012Z,5.60
2019-03-25T01:19:54.771Z,5.50
2019-03-25T01:22:26.212Z,5.50
2019-03-25T01:25:02.188Z,5.50
2019-03-25T01:27:31.504Z,5.50
2019-03-25T01:30:03.058Z,5.60
2019-03-25T01:32:34.911Z,5.60
2019-03-25T01:35:06.971Z,5.60
2019-03-25T01:37:38.816Z,5.60
2019-03-25T01:40:11.067Z,5.50
2019-03-25T01:42:54.058Z,5.60
2019-03-25T01:45:25.619Z,5.60
2019-03-25T01:47:57.371Z,5.60
2019-03-25T01:50:28.938Z,5.60
2019-03-25T01:53:00.559Z,5.50
2019-03-25T01:55:32.052Z,5.50
2019-03-25T01:58:03.858Z,5.60
2019-03-25T02:00:35.734Z,5.60
2019-03-25T02:03:07.708Z,5.50
2019-03-25T02:05:39.188Z,5.60
2019-03-25T02:08:10.684Z,5.60
2019-03-25T02:10:42.268Z,5.60
2019-03-25T02:13:13.810Z,5.60
2019-03-25T02:15:45.372Z,5.60
2019-03-25T02:18:16.900Z,5.60
2019-03-25T02:20:48.776Z,5.60
2019-03-25T02:23:20.374Z,5.60
2019-03-25T02:25:52.017Z,5.60
2019-03-25T02:28:23.521Z,5.60
2019-03-25T02:30:55.493Z,5.60
2019-03-25T02:33:27.449Z,5.50
2019-03-25T02:35:58.967Z,5.60
2019-03-25T02:38:30.742Z,5.60
2019-03-25T02:41:02.259Z,5.70
2019-03-25T02:43:34.203Z,5.60
2019-03-25T02:46:06.448Z,5.60
2019-03-25T02:48:38.379Z,5.70
2019-03-25T02:51:10.746Z,5.60
2019-03-25T02:53:42.710Z,5.60
2019-03-25T02:56:14.306Z,5.50
2019-03-25T02:58:45.948Z,5.60
2019-03-25T03:01:17.499Z,5.50
2019-03-25T03:03:49.095Z,5.50
2019-03-25T03:06:20.740Z,5.60
2019-03-25T03:08:52.664Z,5.60
2019-03-25T03:11:24.240Z,5.60
2019-03-25T03:13:55.913Z,5.60
2019-03-25T03:16:27.798Z,5.60
2019-03-25T03:19:00.434Z,5.60
2019-03-25T03:21:32.077Z,5.70
2019-03-25T03:24:03.633Z,5.70
2019-03-25T03:26:35.267Z,5.70
2019-03-25T03:29:07.128Z,5.70
2019-03-25T03:31:39.121Z,5.70
2019-03-25T03:34:10.751Z,5.70
2019-03-25T03:36:42.327Z,5.80
2019-03-25T03:39:13.995Z,5.70
2019-03-25T03:41:45.647Z,5.70
2019-03-25T03:44:17.135Z,5.70
2019-03-25T03:46:48.727Z,5.70
2019-03-25T03:49:20.912Z,5.70
2019-03-25T03:51:53.487Z,5.80
2019-03-25T03:54:25.666Z,5.80
2019-03-25T03:56:57.994Z,5.90
2019-03-25T03:59:29.980Z,5.90
2019-03-25T04:02:01.914Z,5.90
2019-03-25T04:04:33.496Z,6.00
2019-03-25T04:07:05.121Z,6.10
2019-03-25T04:09:47.827Z,6.10
2019-03-25T04:12:19.691Z,6.10
2019-03-25T04:14:51.193Z,6.10
2019-03-25T04:17:23.169Z,6.20
2019-03-25T04:19:55.664Z,6.10
2019-03-25T04:22:27.531Z,6.10
2019-03-25T04:24:59.566Z,6.20
2019-03-25T04:27:31.520Z,6.10
2019-03-25T04:30:03.018Z,6.20
2019-03-25T04:32:34.914Z,6.20
2019-03-25T04:35:07.335Z,6.20
2019-03-25T04:37:38.821Z,6.30
2019-03-25T04:40:10.655Z,6.30
2019-03-25T04:42:42.237Z,6.40
2019-03-25T04:45:14.091Z,6.40
2019-03-25T04:47:45.617Z,6.40
2019-03-25T04:50:17.207Z,6.40
2019-03-25T04:52:49.855Z,6.50
2019-03-25T04:55:21.385Z,6.50
2019-03-25T04:57:53.191Z,6.50
2019-03-25T05:00:43.658Z,6.60
2019-03-25T05:03:16.291Z,6.60
2019-03-25T05:05:47.877Z,6.60
2019-03-25T05:08:19.442Z,6.60
2019-03-25T05:10:51.084Z,6.50
2019-03-25T05:13:22.589Z,6.50
2019-03-25T05:15:54.191Z,6.60
2019-03-25T05:18:25.818Z,6.60
2019-03-25T05:20:57.763Z,6.60
2019-03-25T05:23:29.663Z,6.60
2019-03-25T05:26:01.291Z,6.70
2019-03-25T05:28:32.874Z,6.70
2019-03-25T05:31:04.436Z,6.60
2019-03-25T05:33:36.074Z,6.60
2019-03-25T05:36:08.011Z,6.60
2019-03-25T05:38:39.511Z,6.50
2019-03-25T05:41:11.072Z,6.50
2019-03-25T05:43:43.027Z,6.50
2019-03-25T05:46:14.592Z,6.40
2019-03-25T05:48:46.512Z,6.30
2019-03-25T05:51:18.088Z,6.30
2019-03-25T05:53:49.680Z,6.30
2019-03-25T05:56:21.201Z,6.30
2019-03-25T05:58:53.028Z,6.30
2019-03-25T06:01:25.022Z,6.30
2019-03-25T06:03:56.566Z,6.30
2019-03-25T06:06:28.203Z,6.30
2019-03-25T06:09:00.136Z,6.30
2019-03-25T06:11:31.773Z,6.30
2019-03-25T06:14:03.696Z,6.30
2019-03-25T06:16:35.738Z,6.30
2019-03-25T06:19:07.377Z,6.20
2019-03-25T06:21:39.254Z,6.20
2019-03-25T06:24:10.845Z,6.30
2019-03-25T06:26:42.492Z,6.20
2019-03-25T06:29:14.663Z,6.30
2019-03-25T06:31:46.251Z,6.20
2019-03-25T06:34:17.786Z,6.20
2019-03-25T06:36:49.347Z,6.30
2019-03-25T06:39:21.261Z,6.30
2019-03-25T06:41:53.200Z,6.30
2019-03-25T06:44:25.299Z,6.30
2019-03-25T06:46:56.817Z,6.30
2019-03-25T06:49:28.307Z,6.30
2019-03-25T06:51:59.856Z,6.30
2019-03-25T06:54:31.458Z,6.40
2019-03-25T06:57:03.010Z,6.40
2019-03-25T06:59:34.985Z,6.50
2019-03-25T07:02:07.251Z,6.50
2019-03-25T07:04:38.725Z,6.60
2019-03-25T07:07:11.078Z,6.60
2019-03-25T07:09:42.726Z,6.60
2019-03-25T07:12:14.353Z,6.70
2019-03-25T07:14:46.444Z,6.70
2019-03-25T07:17:18.361Z,6.70
2019-03-25T07:19:49.867Z,6.70
2019-03-25T07:22:21.514Z,6.80
2019-03-25T07:24:53.192Z,6.80
2019-03-25T07:27:36.029Z,6.80
2019-03-25T07:29:58.325Z,6.80
2019-03-25T07:32:29.908Z,6.80
2019-03-25T07:35:01.503Z,6.90
2019-03-25T07:37:33.548Z,7.00
2019-03-25T07:40:06.442Z,7.00
2019-03-25T07:42:38.063Z,7.00
2019-03-25T07:45:10.866Z,7.10
2019-03-25T07:47:42.469Z,7.10
2019-03-25T07:50:15.485Z,7.10
2019-03-25T07:52:47.075Z,7.10
2019-03-25T07:55:18.597Z,7.10
2019-03-25T07:57:50.190Z,7.10
2019-03-25T08:00:22.989Z,7.10
2019-03-25T08:02:54.946Z,6.60
2019-03-25T08:05:26.574Z,6.40
2019-03-25T08:07:58.274Z,6.20
2019-03-25T08:10:34.357Z,6.20
2019-03-25T08:13:07.462Z,6.20
2019-03-25T08:15:39.533Z,6.30
2019-03-25T08:18:11.182Z,6.50
2019-03-25T08:20:42.757Z,6.70
2019-03-25T08:23:14.441Z,6.80
2019-03-25T08:25:46.127Z,7.00
2019-03-25T08:28:17.758Z,7.30
2019-03-25T08:30:49.393Z,7.60
2019-03-25T08:33:21.215Z,7.90
2019-03-25T08:35:52.822Z,8.20
2019-03-25T08:38:24.424Z,8.20
2019-03-25T08:40:55.975Z,8.20
2019-03-25T08:43:27.792Z,8.40
2019-03-25T08:45:59.391Z,8.30
2019-03-25T08:48:31.268Z,8.20
2019-03-25T08:51:03.180Z,8.00
2019-03-25T08:53:35.099Z,8.00
2019-03-25T08:56:06.749Z,7.80
2019-03-25T08:58:38.297Z,7.70
2019-03-25T09:01:09.757Z,7.60
2019-03-25T09:03:41.366Z,7.50
2019-03-25T09:06:12.877Z,7.40
2019-03-25T09:08:44.841Z,7.20
2019-03-25T09:11:16.529Z,7.10
2019-03-25T09:13:48.431Z,6.90
2019-03-25T09:16:19.943Z,7.00
2019-03-25T09:18:51.807Z,7.10
2019-03-25T09:21:23.693Z,7.50
2019-03-25T09:23:55.225Z,7.90
2019-03-25T09:26:26.811Z,8.40
2019-03-25T09:28:58.445Z,8.80
2019-03-25T09:31:36.843Z,9.20
2019-03-25T09:34:03.603Z,9.20
2019-03-25T09:36:35.166Z,9.00
2019-03-25T09:39:08.451Z,9.20
2019-03-25T09:41:40.638Z,9.50
2019-03-25T09:44:12.215Z,9.60
2019-03-25T09:46:44.092Z,9.60
2019-03-25T09:49:16.000Z,9.80
2019-03-25T09:51:48.039Z,9.70
2019-03-25T09:54:20.031Z,9.20
2019-03-25T09:56:52.813Z,9.10
2019-03-25T09:59:24.371Z,9.10
2019-03-25T10:01:56.014Z,9.00
2019-03-25T10:04:27.970Z,9.00
2019-03-25T10:06:59.553Z,8.90
2019-03-25T10:09:31.102Z,8.90
2019-03-25T10:12:03.009Z,9.10
2019-03-25T10:14:34.614Z,9.90
2019-03-25T10:17:06.242Z,10.50
2019-03-25T10:19:37.896Z,11.00
2019-03-25T10:22:09.411Z,11.20
2019-03-25T10:24:40.966Z,10.70
2019-03-25T10:27:12.514Z,10.80
2019-03-25T10:29:44.094Z,10.50
2019-03-25T10:32:15.619Z,10.40
2019-03-25T10:34:48.122Z,10.90
2019-03-25T10:37:20.085Z,11.00
2019-03-25T10:39:51.678Z,11.60
2019-03-25T10:42:23.290Z,12.30
2019-03-25T10:44:54.910Z,11.70
2019-03-25T10:47:26.872Z,11.20
2019-03-25T10:49:58.885Z,10.80
2019-03-25T10:52:30.805Z,10.80
2019-03-25T10:55:02.794Z,12.10
2019-03-25T10:57:34.459Z,13.10
2019-03-25T11:00:08.027Z,13.20
2019-03-25T11:02:41.274Z,13.20
2019-03-25T11:05:13.942Z,12.80
2019-03-25T11:07:45.460Z,12.80
2019-03-25T11:10:17.314Z,12.80
2019-03-25T11:12:48.911Z,12.50
2019-03-25T11:15:21.147Z,11.50
2019-03-25T11:17:53.290Z,11.10
2019-03-25T11:20:24.950Z,12.10
2019-03-25T11:22:56.580Z,12.60
2019-03-25T11:25:28.206Z,12.60
2019-03-25T11:28:00.115Z,13.20
2019-03-25T11:31:06.043Z,13.20
2019-03-25T11:33:37.724Z,12.60
2019-03-25T11:36:09.596Z,13.10
2019-03-25T11:38:41.576Z,13.50
2019-03-25T11:41:13.231Z,13.10
2019-03-25T11:43:45.405Z,13.70
2019-03-25T11:46:17.069Z,13.20
2019-03-25T11:48:48.696Z,12.30
2019-03-25T11:51:20.331Z,12.90
2019-03-25T11:53:52.330Z,13.30
2019-03-25T11:56:23.847Z,13.00
2019-03-25T11:58:55.427Z,12.70
2019-03-25T12:01:27.002Z,12.80
2019-03-25T12:03:58.587Z,12.60
2019-03-25T12:06:30.177Z,12.00
2019-03-25T12:09:01.743Z,11.40
2019-03-25T12:11:35.635Z,11.00
2019-03-25T12:14:07.595Z,11.40
2019-03-25T12:16:39.102Z,11.20
2019-03-25T12:19:10.677Z,11.20
2019-03-25T12:21:43.834Z,11.00
2019-03-25T12:24:15.335Z,10.90
2019-03-25T12:26:46.880Z,11.20
2019-03-25T12:29:29.319Z,11.50
2019-03-25T12:31:52.446Z,11.80
2019-03-25T12:34:24.408Z,11.60
2019-03-25T12:36:56.142Z,11.70
2019-03-25T12:39:27.797Z,11.70
2019-03-25T12:41:59.301Z,11.90
2019-03-25T12:44:30.903Z,11.50
2019-03-25T12:47:02.461Z,11.20
2019-03-25T12:49:34.092Z,11.00
2019-03-25T12:52:05.750Z,10.80
2019-03-25T12:54:37.274Z,10.70
2019-03-25T12:57:09.103Z,10.70
2019-03-25T12:59:41.731Z,10.80
2019-03-25T13:02:13.499Z,11.10
2019-03-25T13:04:45.119Z,11.30
2019-03-25T13:07:16.669Z,11.20
2019-03-25T13:09:48.219Z,11.10
2019-03-25T13:12:19.719Z,10.90
2019-03-25T13:14:51.378Z,10.40
2019-03-25T13:17:23.767Z,10.30
2019-03-25T13:19:55.331Z,10.50
2019-03-25T13:22:26.933Z,10.90
2019-03-25T13:24:58.468Z,10.90
2019-03-25T13:27:31.099Z,10.80
2019-03-25T13:30:02.677Z,11.00
2019-03-25T13:32:34.430Z,11.00
2019-03-25T13:35:06.853Z,11.00
2019-03-25T13:37:38.456Z,11.00
2019-03-25T13:40:10.336Z,11.10
2019-03-25T13:42:42.277Z,11.20
2019-03-25T13:45:13.905Z,11.40
2019-03-25T13:47:45.533Z,11.20
2019-03-25T13:50:17.423Z,10.90
2019-03-25T13:52:49.417Z,11.00
2019-03-25T13:55:20.949Z,11.10
2019-03-25T13:57:54.626Z,11.10
2019-03-25T14:00:43.545Z,11.10
2019-03-25T14:03:15.007Z,10.90
2019-03-25T14:05:46.575Z,10.60
2019-03-25T14:08:18.739Z,10.60
2019-03-25T14:10:51.608Z,10.50
2019-03-25T14:13:24.441Z,10.40
2019-03-25T14:15:56.978Z,10.40
2019-03-25T14:18:28.895Z,10.30
2019-03-25T14:21:00.352Z,10.50
2019-03-25T14:23:33.187Z,10.50
2019-03-25T14:26:04.653Z,10.80
2019-03-25T14:28:36.480Z,11.00
2019-03-25T14:31:08.410Z,11.00
2019-03-25T14:33:40.290Z,11.00
2019-03-25T14:36:11.874Z,10.90
2019-03-25T14:38:43.348Z,10.80
2019-03-25T14:41:14.826Z,10.70
2019-03-25T14:43:46.324Z,10.60
2019-03-25T14:46:17.878Z,10.70
2019-03-25T14:48:49.696Z,10.60
2019-03-25T14:51:21.471Z,10.60
2019-03-25T14:53:53.452Z,10.50
2019-03-25T14:56:25.209Z,10.50
2019-03-25T14:58:59.329Z,10.30
2019-03-25T15:01:30.899Z,10.30
2019-03-25T15:04:02.453Z,10.30
2019-03-25T15:06:34.212Z,10.40
2019-03-25T15:09:07.647Z,10.40
2019-03-25T15:11:39.092Z,10.40
2019-03-25T15:14:10.549Z,10.30
2019-03-25T15:16:42.437Z,10.20
2019-03-25T15:19:13.899Z,10.10
2019-03-25T15:21:45.437Z,10.20
2019-03-25T15:24:16.920Z,10.10
2019-03-25T15:26:48.663Z,10.10
2019-03-25T15:29:20.515Z,10.10
2019-03-25T15:31:52.059Z,10.00
2019-03-25T15:34:23.526Z,10.00
2019-03-25T15:36:55.042Z,10.00
2019-03-25T15:39:27.166Z,10.00
2019-03-25T15:41:58.675Z,9.90
2019-03-25T15:44:30.535Z,9.90
2019-03-25T15:47:02.045Z,10.00
2019-03-25T15:49:33.613Z,10.10
2019-03-25T15:52:05.168Z,10.00
2019-03-25T15:54:37.091Z,10.00
2019-03-25T15:57:08.533Z,10.10
2019-03-25T15:59:40.056Z,10.00
2019-03-25T16:02:11.523Z,9.90
2019-03-25T16:04:43.088Z,10.00
2019-03-25T16:07:14.819Z,10.00
2019-03-25T16:09:46.661Z,9.90
2019-03-25T16:12:18.813Z,9.90
2019-03-25T16:14:50.321Z,9.90
2019-03-25T16:17:22.381Z,9.90
2019-03-25T16:19:53.874Z,9.90
2019-03-25T16:22:26.303Z,9.80
2019-03-25T16:24:59.152Z,9.90
2019-03-25T16:27:30.749Z,9.80
2019-03-25T16:30:02.922Z,9.80
2019-03-25T16:32:35.902Z,9.80
2019-03-25T16:35:07.916Z,9.70
2019-03-25T16:37:39.849Z,9.70
2019-03-25T16:40:12.013Z,9.60
2019-03-25T16:42:43.718Z,9.60
2019-03-25T16:45:15.636Z,9.60
2019-03-25T16:47:47.497Z,9.60
2019-03-25T16:50:20.050Z,9.50
2019-03-25T16:52:51.655Z,9.40
2019-03-25T16:55:23.354Z,9.40
2019-03-25T16:57:55.214Z,9.40
2019-03-25T17:00:27.806Z,9.40
2019-03-25T17:02:59.528Z,9.30
2019-03-25T17:05:31.334Z,9.40
2019-03-25T17:08:02.881Z,9.10
2019-03-25T17:10:34.338Z,9.20
2019-03-25T17:13:05.799Z,9.20
2019-03-25T17:15:37.290Z,9.20
2019-03-25T17:18:08.908Z,9.30
2019-03-25T17:20:40.361Z,9.30
2019-03-25T17:23:11.940Z,9.30
2019-03-25T17:25:52.710Z,9.20
2019-03-25T17:28:17.082Z,9.20
2019-03-25T17:30:48.592Z,9.10
2019-03-25T17:33:20.127Z,9.20
2019-03-25T17:35:51.675Z,9.20
2019-03-25T17:38:23.132Z,9.10
2019-03-25T17:40:54.598Z,9.10
2019-03-25T17:43:26.213Z,9.10
2019-03-25T17:45:58.106Z,9.10
2019-03-25T17:48:29.637Z,9.10
2019-03-25T17:51:01.081Z,9.10
2019-03-25T17:53:32.624Z,9.00
2019-03-25T17:56:04.095Z,9.00
2019-03-25T17:58:35.600Z,9.00
2019-03-25T18:01:14.191Z,9.00
2019-03-25T18:03:45.688Z,9.00
2019-03-25T18:06:17.239Z,9.00
2019-03-25T18:08:48.697Z,9.00
2019-03-25T18:11:22.838Z,9.00
2019-03-25T18:13:53.862Z,9.00
2019-03-25T18:16:25.462Z,9.00
2019-03-25T18:18:57.009Z,8.90
2019-03-25T18:21:28.596Z,9.00
2019-03-25T18:24:00.391Z,9.00
2019-03-25T18:26:31.835Z,8.90
2019-03-25T18:29:03.470Z,8.90
2019-03-25T18:31:43.279Z,8.90
2019-03-25T18:34:08.517Z,8.90
2019-03-25T18:36:40.049Z,8.90
2019-03-25T18:39:11.573Z,8.90
2019-03-25T18:41:43.117Z,8.80
2019-03-25T18:44:14.598Z,8.80
2019-03-25T18:46:46.550Z,8.80
2019-03-25T18:49:18.217Z,8.80
2019-03-25T18:51:49.780Z,8.90
2019-03-25T18:54:21.831Z,8.90
2019-03-25T18:56:53.309Z,8.80
2019-03-25T18:59:24.816Z,8.80
2019-03-25T19:01:56.755Z,8.80
2019-03-25T19:04:29.095Z,8.80
2019-03-25T19:07:00.562Z,8.80
2019-03-25T19:09:32.163Z,8.80
2019-03-25T19:12:03.676Z,8.80
2019-03-25T19:14:35.176Z,8.70
2019-03-25T19:17:06.707Z,8.80
2019-03-25T19:19:38.270Z,8.80
2019-03-25T19:22:12.470Z,8.80
2019-03-25T19:24:43.360Z,8.70
2019-03-25T19:27:17.416Z,8.80
2019-03-25T19:29:48.543Z,8.70
2019-03-25T19:32:20.053Z,8.60
2019-03-25T19:34:52.210Z,8.60
2019-03-25T19:37:23.826Z,8.50
2019-03-25T19:39:55.748Z,8.60
2019-03-25T19:42:27.333Z,8.50
2019-03-25T19:44:58.804Z,8.50
2019-03-25T19:47:30.709Z,8.50
2019-03-25T19:50:02.208Z,8.50
2019-03-25T19:52:33.944Z,8.50
2019-03-25T19:55:05.978Z,8.60
2019-03-25T19:57:37.559Z,8.60
2019-03-25T20:00:09.485Z,8.50
2019-03-25T20:02:41.361Z,8.50
2019-03-25T20:05:13.568Z,8.50
2019-03-25T20:07:45.470Z,8.50
2019-03-25T20:10:28.835Z,8.50
2019-03-25T20:13:01.041Z,8.50
2019-03-25T20:15:45.516Z,8.50
2019-03-25T20:18:06.467Z,8.50
2019-03-25T20:20:38.059Z,8.40
2019-03-25T20:23:09.964Z,8.40
2019-03-25T20:25:41.587Z,8.40
2019-03-25T20:28:13.565Z,8.40
2019-03-25T20:30:45.095Z,8.40
2019-03-25T20:33:16.700Z,8.40
2019-03-25T20:35:48.639Z,8.40
2019-03-25T20:38:20.558Z,8.40
2019-03-25T20:40:52.524Z,8.30
2019-03-25T20:43:24.084Z,8.30
2019-03-25T20:45:55.665Z,8.30
2019-03-25T20:48:27.625Z,8.40
2019-03-25T20:50:59.505Z,8.30
2019-03-25T20:53:31.560Z,8.30
2019-03-25T20:56:03.099Z,8.40
2019-03-25T20:58:34.726Z,8.30
2019-03-25T21:01:06.282Z,8.30
2019-03-25T21:03:38.472Z,8.30
2019-03-25T21:06:09.960Z,8.30
2019-03-25T21:08:41.536Z,8.30
2019-03-25T21:11:13.508Z,8.30
2019-03-25T21:13:45.584Z,8.30
2019-03-25T21:16:17.267Z,8.30
2019-03-25T21:18:48.830Z,8.30
2019-03-25T21:21:20.316Z,8.30
2019-03-25T21:23:52.268Z,8.30
2019-03-25T21:26:24.221Z,8.30
2019-03-25T21:28:56.152Z,8.20
2019-03-25T21:31:28.757Z,8.20
2019-03-25T21:34:00.273Z,8.20
2019-03-25T21:36:31.905Z,8.10
2019-03-25T21:39:04.402Z,8.10
2019-03-25T21:41:36.319Z,8.00
2019-03-25T21:44:08.176Z,8.10
2019-03-25T21:46:40.028Z,8.00
2019-03-25T21:49:11.978Z,8.00
2019-03-25T21:51:43.518Z,8.00
2019-03-25T21:54:15.197Z,8.00
2019-03-25T21:56:46.739Z,8.00
2019-03-25T21:59:18.255Z,8.00
2019-03-25T22:01:51.231Z,8.00
2019-03-25T22:04:22.915Z,7.80
2019-03-25T22:06:54.390Z,7.80
2019-03-25T22:09:25.867Z,7.80
2019-03-25T22:11:57.365Z,7.90
2019-03-25T22:14:28.899Z,7.90
2019-03-25T22:17:00.347Z,7.90
2019-03-25T22:19:32.156Z,7.90
2019-03-25T22:22:04.065Z,7.90
2019-03-25T22:24:35.871Z,7.90
2019-03-25T22:27:07.398Z,7.80
2019-03-25T22:29:38.869Z,7.90
2019-03-25T22:32:10.357Z,7.80
2019-03-25T22:34:41.849Z,7.80
2019-03-25T22:37:13.397Z,7.80
2019-03-25T22:39:45.997Z,7.70
2019-03-25T22:42:17.533Z,7.70
2019-03-25T22:44:49.096Z,7.70
2019-03-25T22:47:20.640Z,7.80
2019-03-25T22:49:52.467Z,7.70
2019-03-25T22:52:23.996Z,7.80
2019-03-25T22:55:06.747Z,7.80
2019-03-25T22:57:38.251Z,7.80
2019-03-25T23:00:10.746Z,7.80
2019-03-25T23:02:44.014Z,7.70
2019-03-25T23:05:16.082Z,7.70
2019-03-25T23:07:47.653Z,7.80
2019-03-25T23:10:19.206Z,7.70
2019-03-25T23:12:50.765Z,7.70
2019-03-25T23:15:22.273Z,7.70
2019-03-25T23:17:54.167Z,7.70
2019-03-25T23:20:25.917Z,7.70
2019-03-25T23:22:57.801Z,7.70
2019-03-25T23:25:33.487Z,7.70
2019-03-25T23:28:05.514Z,7.70
2019-03-25T23:30:37.364Z,7.70
2019-03-25T23:33:08.878Z,7.70
2019-03-25T23:35:40.829Z,7.70
2019-03-25T23:38:12.485Z,7.70
2019-03-25T23:40:45.754Z,7.80
2019-03-25T23:43:17.352Z,7.80
2019-03-25T23:45:59.753Z,7.80
2019-03-25T23:48:46.688Z,7.70
2019-03-25T23:51:19.306Z,7.80
2019-03-25T23:53:52.506Z,7.70
2019-03-25T23:56:34.565Z,7.80
2019-03-25T23:59:06.923Z,7.70
